Time;durP1;ratioP1;P1;durP2;ratioP2;P2;SDS_P1;SDS_P2;PMS_P1;PMS_P2;Temp;Humidity;BMP_temperature;BMP_pressure;BME280_temperature;BME280_humidity;BME280_pressure;Samples;Min_cycle;Max_cycle;Signal;HPM_P1;HPM_P2
2021/12/06 00:00:14;;;;;;;0.87;0.87;;;4.30;99.90;;;;;;5038128;28;20616;-61
2021/12/06 00:02:42;;;;;;;0.93;0.93;;;4.20;99.90;;;;;;5035132;28;20659;-62
2021/12/06 00:05:10;;;;;;;0.83;0.83;;;4.20;99.90;;;;;;5035052;28;20247;-61
2021/12/06 00:07:38;;;;;;;0.70;0.70;;;4.10;99.90;;;;;;5038331;28;20303;-63
2021/12/06 00:10:08;;;;;;;0.80;0.80;;;4.00;99.90;;;;;;5037917;28;20196;-59
2021/12/06 00:12:35;;;;;;;0.80;0.80;;;4.00;99.90;;;;;;5038670;28;20227;-60
2021/12/06 00:15:04;;;;;;;0.70;0.70;;;3.90;99.90;;;;;;5032184;28;20278;-60
2021/12/06 00:17:31;;;;;;;0.60;0.60;;;3.80;99.90;;;;;;5036093;28;20211;-61
2021/12/06 00:19:58;;;;;;;0.60;0.60;;;3.80;99.90;;;;;;5039303;28;20239;-60
2021/12/06 00:22:25;;;;;;;0.70;0.70;;;3.80;99.90;;;;;;5037950;28;20283;-62
2021/12/06 00:24:55;;;;;;;0.60;0.60;;;3.70;99.90;;;;;;5042125;28;20311;-61
2021/12/06 00:27:23;;;;;;;0.60;0.60;;;3.70;99.90;;;;;;5034352;28;20289;-62
2021/12/06 00:29:51;;;;;;;0.60;0.60;;;3.60;99.90;;;;;;5035942;28;20291;-60
2021/12/06 00:32:19;;;;;;;0.60;0.60;;;3.70;99.90;;;;;;5033833;28;20200;-62
2021/12/06 00:34:46;;;;;;;0.60;0.60;;;3.70;99.90;;;;;;5033946;28;20251;-61
2021/12/06 00:37:19;;;;;;;0.43;0.43;;;3.70;99.90;;;;;;5037327;28;20277;-60
2021/12/06 00:39:48;;;;;;;0.60;0.60;;;3.70;99.90;;;;;;5032763;28;20204;-60
2021/12/06 00:42:16;;;;;;;0.70;0.70;;;3.80;99.90;;;;;;5049440;22;20598;-67
2021/12/06 00:44:45;;;;;;;0.60;0.60;;;3.80;99.90;;;;;;5030300;28;20232;-68
2021/12/06 00:47:12;;;;;;;0.60;0.60;;;3.80;99.90;;;;;;5032879;28;20228;-66
2021/12/06 00:49:39;;;;;;;0.50;0.50;;;3.90;99.90;;;;;;5031578;28;20200;-67
2021/12/06 00:52:08;;;;;;;0.70;0.70;;;3.90;99.90;;;;;;5031833;28;20239;-65
2021/12/06 00:54:35;;;;;;;0.53;0.53;;;4.00;99.90;;;;;;5023826;28;20283;-67
2021/12/06 00:57:04;;;;;;;0.60;0.60;;;3.90;99.90;;;;;;5017683;28;20212;-66
2021/12/06 00:59:31;;;;;;;0.70;0.70;;;3.90;99.90;;;;;;5016567;28;20268;-67
2021/12/06 01:02:00;;;;;;;0.50;0.50;;;3.80;99.90;;;;;;5032505;28;20264;-67
2021/12/06 01:04:31;;;;;;;0.60;0.60;;;3.80;99.90;;;;;;5027846;28;20308;-67
2021/12/06 01:06:59;;;;;;;0.50;0.50;;;3.70;99.90;;;;;;5032796;28;20241;-67
2021/12/06 01:09:26;;;;;;;0.70;0.70;;;3.70;99.90;;;;;;5032375;28;20338;-67
2021/12/06 01:11:53;;;;;;;0.70;0.70;;;3.60;99.90;;;;;;5037455;28;20236;-68
2021/12/06 01:14:20;;;;;;;0.73;0.73;;;3.60;99.90;;;;;;5023097;28;20303;-66
2021/12/06 01:16:50;;;;;;;0.80;0.80;;;3.60;99.90;;;;;;5019640;28;20668;-65
2021/12/06 01:19:18;;;;;;;0.70;0.70;;;3.60;99.90;;;;;;5015422;28;20801;-67
2021/12/06 01:21:50;;;;;;;0.60;0.60;;;3.60;99.90;;;;;;5015681;28;20220;-67
2021/12/06 01:24:24;;;;;;;0.70;0.70;;;3.50;99.90;;;;;;5024686;28;20216;-67
2021/12/06 01:30:03;;;;;;;0.60;0.60;;;3.60;99.90;;;;;;5033780;28;20228;-68
2021/12/06 01:33:01;;;;;;;0.60;0.60;;;3.70;99.90;;;;;;5034122;28;20221;-67
2021/12/06 01:40:54;;;;;;;0.50;0.50;;;3.70;99.90;;;;;;5027706;28;20271;-65
2021/12/06 01:43:21;;;;;;;0.60;0.60;;;3.60;99.90;;;;;;5023938;28;20271;-67
2021/12/06 01:45:48;;;;;;;0.67;0.67;;;3.60;99.90;;;;;;5016660;28;20212;-66
2021/12/06 01:48:15;;;;;;;0.70;0.70;;;3.60;99.90;;;;;;5014807;28;20264;-67
2021/12/06 01:50:44;;;;;;;0.43;0.43;;;3.60;99.90;;;;;;5020481;28;20243;-67
2021/12/06 01:53:11;;;;;;;0.60;0.60;;;3.60;99.90;;;;;;5011543;28;20924;-65
2021/12/06 01:55:40;;;;;;;0.60;0.60;;;3.60;99.90;;;;;;5017210;28;20267;-66
2021/12/06 01:58:08;;;;;;;0.40;0.40;;;3.60;99.90;;;;;;5023972;28;20206;-66
2021/12/06 02:00:40;;;;;;;0.60;0.60;;;3.50;99.90;;;;;;5024691;28;20750;-68
2021/12/06 02:03:07;;;;;;;0.70;0.70;;;3.50;99.90;;;;;;5021840;28;20249;-66
2021/12/06 02:05:36;;;;;;;0.60;0.60;;;3.50;99.90;;;;;;5014369;28;20288;-66
2021/12/06 02:08:05;;;;;;;0.40;0.40;;;3.40;99.90;;;;;;5012568;28;20213;-65
2021/12/06 02:10:32;;;;;;;0.70;0.70;;;3.40;99.90;;;;;;5013330;28;20296;-68
2021/12/06 02:12:59;;;;;;;0.60;0.60;;;3.40;99.90;;;;;;5009049;28;20249;-66
2021/12/06 02:15:39;;;;;;;0.70;0.70;;;3.30;99.90;;;;;;5011739;28;20296;-66
2021/12/06 02:18:13;;;;;;;0.63;0.63;;;3.30;99.90;;;;;;5008304;28;20201;-65
2021/12/06 02:20:47;;;;;;;0.53;0.53;;;3.30;99.90;;;;;;5014056;28;20252;-66
2021/12/06 02:23:17;;;;;;;0.53;0.53;;;3.40;99.90;;;;;;5019673;28;20652;-66
2021/12/06 02:25:44;;;;;;;0.60;0.60;;;3.30;99.90;;;;;;5020173;28;20292;-66
2021/12/06 02:28:11;;;;;;;0.50;0.50;;;3.30;99.90;;;;;;5014735;28;20255;-67
2021/12/06 02:30:38;;;;;;;0.40;0.40;;;3.30;99.90;;;;;;5015448;28;20201;-66
2021/12/06 02:33:05;;;;;;;0.60;0.60;;;3.30;99.90;;;;;;5014681;28;20313;-67
2021/12/06 02:35:32;;;;;;;0.70;0.70;;;3.30;99.90;;;;;;5021868;28;20647;-67
2021/12/06 02:38:02;;;;;;;0.60;0.60;;;3.30;99.90;;;;;;5018802;28;20233;-67
2021/12/06 02:40:33;;;;;;;0.57;0.57;;;3.20;99.90;;;;;;5021089;28;20201;-67
2021/12/06 02:43:02;;;;;;;0.53;0.53;;;3.20;99.90;;;;;;5007432;28;20320;-66
2021/12/06 02:45:30;;;;;;;0.70;0.70;;;3.10;99.90;;;;;;5014313;28;20288;-66
2021/12/06 02:48:00;;;;;;;0.43;0.43;;;3.10;99.90;;;;;;5008991;28;20734;-67
2021/12/06 02:50:31;;;;;;;0.60;0.60;;;3.10;99.90;;;;;;5016844;28;20241;-68
2021/12/06 02:52:58;;;;;;;0.70;0.70;;;3.10;99.90;;;;;;5013582;28;20313;-67
2021/12/06 02:55:32;;;;;;;0.60;0.60;;;3.10;99.90;;;;;;5021449;28;20232;-68
2021/12/06 02:58:14;;;;;;;0.70;0.70;;;3.00;99.90;;;;;;5029861;28;20679;-68
2021/12/06 03:00:44;;;;;;;0.60;0.60;;;2.90;99.90;;;;;;5016606;28;20210;-68
2021/12/06 03:03:11;;;;;;;0.77;0.77;;;2.90;99.90;;;;;;5007597;28;20225;-67
2021/12/06 03:05:38;;;;;;;0.50;0.50;;;2.80;99.90;;;;;;5009591;28;20296;-67
2021/12/06 03:08:07;;;;;;;0.60;0.60;;;2.80;99.90;;;;;;5020054;28;20208;-68
2021/12/06 03:10:34;;;;;;;0.53;0.53;;;2.80;99.90;;;;;;5019790;28;20671;-67
2021/12/06 03:13:03;;;;;;;0.43;0.43;;;2.70;99.90;;;;;;5003231;28;20232;-67
2021/12/06 03:15:31;;;;;;;0.40;0.40;;;2.70;99.90;;;;;;4999869;28;20304;-66
2021/12/06 03:17:58;;;;;;;0.40;0.40;;;2.70;99.90;;;;;;5007501;28;20232;-69
2021/12/06 03:20:25;;;;;;;0.60;0.60;;;2.70;99.90;;;;;;5015159;28;20703;-67
2021/12/06 03:22:52;;;;;;;0.50;0.50;;;2.60;99.90;;;;;;5015789;28;20771;-68
2021/12/06 03:25:19;;;;;;;0.47;0.47;;;2.60;99.90;;;;;;5028203;28;20641;-66
2021/12/06 03:27:47;;;;;;;0.40;0.40;;;2.60;99.90;;;;;;5020027;28;20643;-68
2021/12/06 03:30:16;;;;;;;0.40;0.40;;;2.70;99.90;;;;;;5019168;28;20296;-66
2021/12/06 03:32:43;;;;;;;0.50;0.50;;;2.70;99.90;;;;;;5018992;28;20260;-68
2021/12/06 03:35:11;;;;;;;0.40;0.40;;;2.70;99.90;;;;;;5010455;28;20205;-65
2021/12/06 03:37:38;;;;;;;1.60;0.50;;;2.70;99.90;;;;;;5021799;28;20273;-68
2021/12/06 03:40:06;;;;;;;0.57;0.57;;;2.60;99.90;;;;;;5018108;28;20669;-66
2021/12/06 03:42:33;;;;;;;0.40;0.40;;;2.60;99.90;;;;;;5019729;28;20300;-66
2021/12/06 03:45:01;;;;;;;0.60;0.60;;;2.50;99.90;;;;;;5012477;28;20268;-68
2021/12/06 03:47:31;;;;;;;0.60;0.60;;;2.50;99.90;;;;;;5017535;28;20235;-67
2021/12/06 03:50:00;;;;;;;0.50;0.50;;;2.60;99.90;;;;;;5009357;28;20202;-68
2021/12/06 03:52:27;;;;;;;0.60;0.60;;;2.60;99.90;;;;;;5025607;28;20244;-67
2021/12/06 03:54:55;;;;;;;0.60;0.60;;;2.50;99.90;;;;;;5034433;28;20233;-66
2021/12/06 03:57:22;;;;;;;0.50;0.50;;;2.50;99.90;;;;;;5011476;28;20214;-66
2021/12/06 03:59:51;;;;;;;0.50;0.50;;;2.50;99.90;;;;;;5014162;28;20571;-66
2021/12/06 04:02:19;;;;;;;0.50;0.50;;;2.50;99.90;;;;;;5008101;28;20320;-66
2021/12/06 04:04:47;;;;;;;0.60;0.60;;;2.50;99.90;;;;;;5012252;28;20284;-66
2021/12/06 04:07:14;;;;;;;0.60;0.60;;;2.30;99.90;;;;;;5009099;28;20301;-66
2021/12/06 04:09:42;;;;;;;0.63;0.63;;;2.30;99.90;;;;;;5012092;28;20289;-67
2021/12/06 04:12:11;;;;;;;0.50;0.50;;;2.30;99.90;;;;;;5015715;28;20289;-68
2021/12/06 04:14:39;;;;;;;0.60;0.60;;;2.30;99.90;;;;;;5011213;28;20203;-66
2021/12/06 04:17:07;;;;;;;0.50;0.50;;;2.30;99.90;;;;;;5010436;28;20240;-65
2021/12/06 04:19:34;;;;;;;0.60;0.60;;;2.30;99.90;;;;;;5009981;28;20558;-67
2021/12/06 04:22:04;;;;;;;0.90;0.90;;;2.30;99.90;;;;;;5014453;28;20221;-68
2021/12/06 04:24:31;;;;;;;1.00;0.80;;;2.20;99.90;;;;;;5018864;28;20592;-65
2021/12/06 04:27:02;;;;;;;0.70;0.70;;;2.20;99.90;;;;;;5004659;28;20209;-67
2021/12/06 04:29:29;;;;;;;0.87;0.87;;;2.20;99.90;;;;;;5020713;28;20623;-66
2021/12/06 04:31:56;;;;;;;0.70;0.70;;;2.20;99.90;;;;;;5007877;28;20237;-67
2021/12/06 04:34:23;;;;;;;0.50;0.50;;;2.20;99.90;;;;;;5018122;28;20220;-66
2021/12/06 04:36:51;;;;;;;0.57;0.57;;;2.20;99.90;;;;;;5008539;28;20201;-68
2021/12/06 04:39:21;;;;;;;0.70;0.70;;;2.30;99.90;;;;;;5018395;28;20206;-67
2021/12/06 04:41:48;;;;;;;0.60;0.60;;;2.30;99.90;;;;;;5018183;28;20252;-68
2021/12/06 04:44:15;;;;;;;0.63;0.63;;;2.30;99.90;;;;;;5016746;28;20271;-66
2021/12/06 04:46:42;;;;;;;0.67;0.67;;;2.30;99.90;;;;;;5007181;28;20202;-67
2021/12/06 04:49:09;;;;;;;0.60;0.60;;;2.40;99.90;;;;;;5008078;28;20311;-68
2021/12/06 04:51:39;;;;;;;0.57;0.57;;;2.50;99.90;;;;;;5013183;28;20229;-67
2021/12/06 04:54:07;;;;;;;0.70;0.70;;;2.50;99.90;;;;;;5009444;28;20588;-67
2021/12/06 04:56:39;;;;;;;0.60;0.60;;;2.50;99.90;;;;;;5000860;28;20748;-67
2021/12/06 04:59:14;;;;;;;0.50;0.50;;;2.60;99.90;;;;;;5009754;28;20502;-67
2021/12/06 05:01:43;;;;;;;0.50;0.50;;;2.60;99.90;;;;;;5012258;28;20761;-67
2021/12/06 05:04:14;;;;;;;0.60;0.60;;;2.60;99.90;;;;;;5010714;28;20236;-66
2021/12/06 05:06:45;;;;;;;0.40;0.40;;;2.70;99.90;;;;;;5016693;28;20261;-67
2021/12/06 05:09:20;;;;;;;0.67;0.67;;;2.60;99.90;;;;;;5005086;28;20288;-67
2021/12/06 05:11:49;;;;;;;0.73;0.73;;;2.70;99.90;;;;;;5006079;28;20199;-67
2021/12/06 05:14:17;;;;;;;0.60;0.60;;;2.70;99.90;;;;;;5025069;28;20229;-67
2021/12/06 05:16:45;;;;;;;0.60;0.60;;;2.90;99.90;;;;;;5019223;28;20215;-67
2021/12/06 05:19:12;;;;;;;0.80;0.80;;;3.00;99.90;;;;;;5017512;28;20213;-66
2021/12/06 05:21:39;;;;;;;0.80;0.80;;;3.00;99.90;;;;;;5022980;28;20608;-67
2021/12/06 05:24:07;;;;;;;0.70;0.70;;;3.00;99.90;;;;;;5032131;28;20232;-67
2021/12/06 05:26:34;;;;;;;0.77;0.77;;;3.10;99.90;;;;;;5013579;28;20211;-67
2021/12/06 05:29:04;;;;;;;0.50;0.50;;;3.10;99.90;;;;;;5022125;28;20291;-67
2021/12/06 05:31:33;;;;;;;0.50;0.50;;;3.10;99.90;;;;;;5014383;28;20267;-67
2021/12/06 05:34:06;;;;;;;0.50;0.50;;;3.20;99.90;;;;;;5012369;28;20321;-67
2021/12/06 05:36:33;;;;;;;0.50;0.50;;;3.20;99.90;;;;;;5033222;28;20236;-67
2021/12/06 05:39:00;;;;;;;0.70;0.70;;;3.20;99.90;;;;;;5030073;28;20237;-67
2021/12/06 05:41:27;;;;;;;0.67;0.67;;;3.20;99.90;;;;;;5023099;28;20233;-66
2021/12/06 05:43:54;;;;;;;0.70;0.70;;;3.30;99.90;;;;;;5024633;28;20260;-68
2021/12/06 05:46:22;;;;;;;0.70;0.70;;;3.20;99.90;;;;;;5018343;28;20207;-67
2021/12/06 05:48:49;;;;;;;0.70;0.70;;;3.10;99.90;;;;;;5015674;28;20203;-68
2021/12/06 05:51:16;;;;;;;0.60;0.60;;;3.20;99.90;;;;;;5015553;28;20734;-67
2021/12/06 05:53:43;;;;;;;0.67;0.67;;;3.20;99.90;;;;;;5025687;28;20544;-67
2021/12/06 05:56:10;;;;;;;0.80;0.80;;;3.20;99.90;;;;;;5011722;28;20645;-66
2021/12/06 05:58:37;;;;;;;0.63;0.63;;;3.20;99.90;;;;;;5009914;28;20211;-66
2021/12/06 06:01:06;;;;;;;0.50;0.50;;;3.20;99.90;;;;;;5016010;28;20213;-68
2021/12/06 06:03:34;;;;;;;0.60;0.60;;;3.20;99.90;;;;;;5018475;28;20229;-67
2021/12/06 06:06:01;;;;;;;0.60;0.60;;;3.20;99.90;;;;;;5012598;28;20201;-68
2021/12/06 06:08:28;;;;;;;0.70;0.70;;;3.20;99.90;;;;;;5024501;28;20208;-66
2021/12/06 06:10:55;;;;;;;0.80;0.80;;;3.30;99.90;;;;;;5015315;28;20212;-67
2021/12/06 06:13:23;;;;;;;0.80;0.80;;;3.30;99.90;;;;;;5020341;28;20259;-68
2021/12/06 06:15:51;;;;;;;0.90;0.90;;;3.40;99.90;;;;;;5025936;28;20269;-68
2021/12/06 06:18:18;;;;;;;0.80;0.80;;;3.40;99.90;;;;;;5002670;28;20581;-68
2021/12/06 06:20:50;;;;;;;0.90;0.90;;;3.40;99.90;;;;;;5008118;28;20288;-65
2021/12/06 06:23:17;;;;;;;0.80;0.80;;;3.40;99.90;;;;;;5014259;28;20687;-66
2021/12/06 06:25:44;;;;;;;0.90;0.90;;;3.50;99.90;;;;;;5022316;28;20233;-66
2021/12/06 06:28:12;;;;;;;0.73;0.73;;;3.40;99.90;;;;;;5018556;28;20341;-65
2021/12/06 06:30:39;;;;;;;0.90;0.90;;;3.40;99.90;;;;;;5021176;28;20291;-65
2021/12/06 06:33:06;;;;;;;0.80;0.80;;;3.40;99.90;;;;;;5018140;28;20312;-67
2021/12/06 06:35:33;;;;;;;0.93;0.93;;;3.40;99.90;;;;;;5017125;28;20584;-66
2021/12/06 06:38:02;;;;;;;0.93;0.93;;;3.40;99.90;;;;;;5015667;28;20212;-65
2021/12/06 06:40:28;;;;;;;0.80;0.80;;;3.50;99.90;;;;;;5018050;28;20686;-66
2021/12/06 06:42:55;;;;;;;0.83;0.83;;;3.50;99.90;;;;;;5023311;22;20305;-60
2021/12/06 06:45:23;;;;;;;0.60;0.60;;;3.50;99.90;;;;;;5038962;28;20558;-61
2021/12/06 06:47:59;;;;;;;0.73;0.73;;;3.50;99.90;;;;;;5030483;28;20288;-60
2021/12/06 06:50:27;;;;;;;0.60;0.60;;;3.60;99.90;;;;;;5038516;28;20282;-63
2021/12/06 06:52:54;;;;;;;0.83;0.83;;;3.70;99.90;;;;;;5036406;28;20311;-62
2021/12/06 06:55:23;;;;;;;0.73;0.73;;;3.70;99.90;;;;;;5034945;28;20219;-61
2021/12/06 06:57:51;;;;;;;0.50;0.50;;;3.80;99.90;;;;;;5036221;28;20235;-60
2021/12/06 07:00:20;;;;;;;0.90;0.90;;;3.80;99.90;;;;;;5026452;28;20292;-62
2021/12/06 07:02:47;;;;;;;0.80;0.80;;;3.80;99.90;;;;;;5033057;28;20296;-62
2021/12/06 07:05:14;;;;;;;0.60;0.60;;;3.90;99.90;;;;;;5030388;28;20231;-61
2021/12/06 07:07:41;;;;;;;0.87;0.87;;;3.90;99.90;;;;;;5036392;28;20211;-61
2021/12/06 07:10:09;;;;;;;0.60;0.60;;;3.90;99.90;;;;;;5022041;28;20202;-62
2021/12/06 07:12:44;;;;;;;0.63;0.63;;;4.00;99.90;;;;;;5040755;28;20629;-60
2021/12/06 07:15:13;;;;;;;0.83;0.83;;;4.00;99.90;;;;;;5029853;28;20200;-62
2021/12/06 07:17:40;;;;;;;0.70;0.70;;;4.10;99.90;;;;;;5034958;28;20578;-60
2021/12/06 07:20:09;;;;;;;0.70;0.70;;;4.00;99.90;;;;;;5035943;28;20291;-60
2021/12/06 07:22:36;;;;;;;0.70;0.70;;;4.10;99.90;;;;;;5042469;28;20694;-61
2021/12/06 07:25:03;;;;;;;0.97;0.97;;;4.10;99.90;;;;;;5043651;28;20204;-62
2021/12/06 07:27:30;;;;;;;0.90;0.90;;;4.10;99.90;;;;;;5047021;28;20299;-59
2021/12/06 07:29:59;;;;;;;0.70;0.70;;;4.10;99.90;;;;;;5030435;28;20660;-60
2021/12/06 07:32:26;;;;;;;0.80;0.80;;;4.20;99.90;;;;;;5031703;28;20211;-60
2021/12/06 07:34:54;;;;;;;0.80;0.80;;;4.20;99.90;;;;;;5032407;28;20666;-61
2021/12/06 07:37:21;;;;;;;0.70;0.70;;;4.10;99.90;;;;;;5033022;28;20705;-60
2021/12/06 07:39:48;;;;;;;0.83;0.83;;;4.20;99.90;;;;;;5033934;28;20201;-59
2021/12/06 07:42:15;;;;;;;0.80;0.80;;;4.20;99.90;;;;;;5033157;28;20632;-60
2021/12/06 07:44:43;;;;;;;0.90;0.90;;;4.20;99.90;;;;;;5031365;28;20292;-59
2021/12/06 07:47:13;;;;;;;0.80;0.80;;;4.20;99.90;;;;;;5052475;28;20205;-60
2021/12/06 07:49:43;;;;;;;0.73;0.73;;;4.20;99.90;;;;;;5046809;28;20201;-60
2021/12/06 07:52:11;;;;;;;0.80;0.80;;;4.10;99.90;;;;;;5045672;28;20201;-61
2021/12/06 07:54:38;;;;;;;0.90;0.90;;;4.10;99.90;;;;;;5030967;28;20216;-60
2021/12/06 07:57:06;;;;;;;0.90;0.90;;;4.10;99.90;;;;;;5035986;28;20228;-61
2021/12/06 07:59:33;;;;;;;0.87;0.87;;;4.10;99.90;;;;;;5039294;28;20229;-60
2021/12/06 08:02:00;;;;;;;0.80;0.80;;;4.10;99.90;;;;;;5039901;28;20200;-61
2021/12/06 08:04:30;;;;;;;0.87;0.87;;;4.10;99.90;;;;;;5041501;28;20255;-61
2021/12/06 08:06:57;;;;;;;1.00;1.00;;;4.10;99.90;;;;;;5038143;28;20291;-63
2021/12/06 08:09:24;;;;;;;0.80;0.80;;;4.20;99.90;;;;;;5033701;28;20231;-61
2021/12/06 08:11:51;;;;;;;0.90;0.90;;;4.20;99.90;;;;;;5033363;28;20207;-62
2021/12/06 08:14:19;;;;;;;0.80;0.80;;;4.20;99.90;;;;;;5033525;28;20216;-61
2021/12/06 08:16:46;;;;;;;0.60;0.60;;;4.20;99.90;;;;;;5030158;28;20655;-59
2021/12/06 08:19:14;;;;;;;0.90;0.90;;;4.20;99.90;;;;;;5034407;28;20275;-62
2021/12/06 08:21:42;;;;;;;0.60;0.60;;;4.20;99.90;;;;;;5032329;28;20295;-60
2021/12/06 08:24:10;;;;;;;0.73;0.73;;;4.20;99.90;;;;;;5029967;28;20243;-60
2021/12/06 08:26:41;;;;;;;1.03;1.03;;;4.20;99.90;;;;;;5031785;28;20296;-60
2021/12/06 08:29:13;;;;;;;0.90;0.90;;;4.30;99.90;;;;;;5031152;28;20283;-61
2021/12/06 08:31:41;;;;;;;0.80;0.80;;;4.30;99.90;;;;;;5034684;28;20235;-60
2021/12/06 08:34:08;;;;;;;0.93;0.93;;;4.30;99.90;;;;;;5031238;28;20216;-60
2021/12/06 08:36:35;;;;;;;0.97;0.97;;;4.30;99.90;;;;;;5033156;28;20205;-60
2021/12/06 08:39:05;;;;;;;0.80;0.80;;;4.30;99.90;;;;;;5030700;28;20200;-60
2021/12/06 08:41:32;;;;;;;0.80;0.80;;;4.30;99.90;;;;;;5027768;28;20723;-59
2021/12/06 08:44:01;;;;;;;0.77;0.77;;;4.30;99.90;;;;;;5020890;28;20233;-59
2021/12/06 08:46:31;;;;;;;0.90;0.90;;;4.30;99.90;;;;;;5025587;28;20200;-60
2021/12/06 08:49:00;;;;;;;0.97;0.90;;;4.30;99.90;;;;;;5025377;28;20291;-59
2021/12/06 08:51:29;;;;;;;0.80;0.80;;;4.30;99.90;;;;;;5030795;28;20201;-60
2021/12/06 08:53:58;;;;;;;0.90;0.90;;;4.30;99.90;;;;;;5032389;28;20302;-61
2021/12/06 08:56:27;;;;;;;1.00;1.00;;;4.40;99.90;;;;;;5040019;28;20233;-61
2021/12/06 08:58:55;;;;;;;0.90;0.90;;;4.60;99.90;;;;;;5025073;28;20210;-60
2021/12/06 09:01:22;;;;;;;1.30;1.20;;;4.60;99.90;;;;;;5044989;28;20254;-61
2021/12/06 09:03:49;;;;;;;1.00;1.00;;;4.60;99.90;;;;;;5037065;28;20324;-60
2021/12/06 09:06:16;;;;;;;1.50;1.40;;;4.60;99.90;;;;;;5030368;28;20200;-60
2021/12/06 09:08:44;;;;;;;1.00;1.00;;;4.60;99.90;;;;;;5030654;28;20303;-60
2021/12/06 09:11:12;;;;;;;1.00;1.00;;;4.60;99.90;;;;;;5030462;28;20292;-60
2021/12/06 09:13:42;;;;;;;0.90;0.90;;;4.70;99.90;;;;;;5035146;28;20648;-60
2021/12/06 09:16:11;;;;;;;0.90;0.90;;;4.70;99.90;;;;;;5029160;28;20235;-59
2021/12/06 09:18:41;;;;;;;0.73;0.73;;;4.70;99.90;;;;;;5037269;28;20578;-59
2021/12/06 09:21:12;;;;;;;0.70;0.70;;;4.80;99.90;;;;;;5036439;28;20200;-60
2021/12/06 09:23:39;;;;;;;1.10;1.10;;;4.80;99.90;;;;;;5026622;28;20236;-60
2021/12/06 09:26:06;;;;;;;1.10;1.10;;;4.90;99.90;;;;;;5027196;28;20673;-61
2021/12/06 09:28:33;;;;;;;0.90;0.90;;;4.90;99.90;;;;;;5032150;28;20720;-59
2021/12/06 09:31:04;;;;;;;0.90;0.90;;;4.90;99.90;;;;;;5033201;28;20212;-61
2021/12/06 09:33:31;;;;;;;1.10;1.10;;;4.90;99.90;;;;;;5032202;28;20698;-61
2021/12/06 09:35:59;;;;;;;0.90;0.90;;;4.90;99.90;;;;;;5028518;28;20205;-61
2021/12/06 09:38:33;;;;;;;1.00;1.00;;;4.90;99.90;;;;;;5030824;28;20204;-61
2021/12/06 09:41:01;;;;;;;0.83;0.83;;;5.00;99.90;;;;;;5030817;28;20722;-61
2021/12/06 09:43:28;;;;;;;0.90;0.90;;;5.00;99.90;;;;;;5020465;28;20319;-60
2021/12/06 09:45:56;;;;;;;1.10;1.10;;;5.00;99.90;;;;;;5023175;28;20299;-59
2021/12/06 09:48:24;;;;;;;0.93;0.93;;;5.00;99.90;;;;;;5024575;28;20327;-59
2021/12/06 09:50:55;;;;;;;1.00;0.90;;;5.10;99.90;;;;;;5029159;28;20205;-62
2021/12/06 09:53:26;;;;;;;1.00;1.00;;;5.10;99.90;;;;;;5023901;28;20876;-61
2021/12/06 09:55:56;;;;;;;1.17;0.80;;;5.20;99.90;;;;;;5024857;28;20319;-59
2021/12/06 09:58:24;;;;;;;0.80;0.80;;;5.20;99.90;;;;;;5023503;28;20204;-60
2021/12/06 10:00:55;;;;;;;0.63;0.63;;;5.30;99.90;;;;;;5023403;28;20297;-59
2021/12/06 10:03:28;;;;;;;0.80;0.80;;;5.40;99.90;;;;;;5018174;28;20319;-60
2021/12/06 10:06:01;;;;;;;0.90;0.90;;;5.40;99.90;;;;;;5020357;28;20212;-60
2021/12/06 10:08:28;;;;;;;0.80;0.80;;;5.60;99.90;;;;;;5020266;28;20274;-61
2021/12/06 10:10:55;;;;;;;0.80;0.80;;;5.60;99.90;;;;;;5021880;28;20300;-61
2021/12/06 10:13:22;;;;;;;0.83;0.83;;;5.70;99.90;;;;;;5023159;28;20345;-61
2021/12/06 10:15:51;;;;;;;0.83;0.83;;;5.80;99.90;;;;;;5033475;28;20666;-63
2021/12/06 10:18:20;;;;;;;0.80;0.80;;;5.80;99.90;;;;;;5031713;28;20663;-61
2021/12/06 10:20:49;;;;;;;1.10;1.10;;;5.90;99.90;;;;;;5027910;28;20212;-63
2021/12/06 10:23:18;;;;;;;0.90;0.90;;;5.90;99.90;;;;;;5024281;28;20615;-62
2021/12/06 10:25:47;;;;;;;0.80;0.80;;;5.90;99.90;;;;;;5029066;28;20213;-62
2021/12/06 10:28:17;;;;;;;0.83;0.83;;;6.00;99.90;;;;;;5029006;28;20244;-63
2021/12/06 10:30:48;;;;;;;1.10;1.10;;;6.10;99.90;;;;;;5030841;28;20625;-60
2021/12/06 10:33:18;;;;;;;1.57;1.30;;;6.20;99.90;;;;;;5028190;28;20232;-59
2021/12/06 10:35:50;;;;;;;1.10;1.10;;;6.20;99.90;;;;;;5031306;28;20219;-60
2021/12/06 10:38:20;;;;;;;1.10;1.10;;;6.30;99.90;;;;;;5027893;28;20579;-60
2021/12/06 10:40:47;;;;;;;1.10;1.10;;;6.40;99.90;;;;;;5033841;28;20204;-60
2021/12/06 10:43:15;;;;;;;1.10;1.10;;;6.40;99.90;;;;;;5033980;28;20232;-61
2021/12/06 10:45:47;;;;;;;1.20;1.20;;;6.40;99.90;;;;;;5035531;28;20204;-62
2021/12/06 10:48:16;;;;;;;1.40;1.30;;;6.40;99.90;;;;;;5034787;28;20483;-61
2021/12/06 10:50:45;;;;;;;1.10;1.10;;;6.40;99.90;;;;;;5034857;28;20746;-62
2021/12/06 10:53:16;;;;;;;1.23;1.13;;;6.50;99.90;;;;;;5032568;28;20224;-62
2021/12/06 10:55:44;;;;;;;1.50;1.40;;;6.50;99.90;;;;;;5037178;28;20204;-62
2021/12/06 10:58:14;;;;;;;1.00;1.00;;;6.60;99.90;;;;;;5031853;28;20210;-62
2021/12/06 11:00:49;;;;;;;1.13;1.13;;;6.60;99.90;;;;;;5036810;28;20225;-62
2021/12/06 11:03:23;;;;;;;1.17;1.17;;;6.60;99.90;;;;;;5034028;28;20274;-62
2021/12/06 11:05:54;;;;;;;1.13;1.10;;;6.70;99.90;;;;;;5037669;28;20303;-61
2021/12/06 11:08:24;;;;;;;1.30;1.30;;;6.80;99.90;;;;;;5031192;28;20209;-61
2021/12/06 11:10:54;;;;;;;1.27;1.27;;;6.90;99.90;;;;;;5034235;28;20308;-63
2021/12/06 11:13:24;;;;;;;1.23;1.23;;;6.90;99.90;;;;;;5032062;28;20267;-60
2021/12/06 11:15:57;;;;;;;1.10;1.10;;;7.00;99.90;;;;;;5030919;28;20259;-62
2021/12/06 11:18:38;;;;;;;1.37;1.27;;;7.10;99.90;;;;;;5032245;28;20295;-62
2021/12/06 11:21:22;;;;;;;1.17;1.17;;;7.20;99.90;;;;;;5026979;28;20288;-61
2021/12/06 11:24:06;;;;;;;1.30;1.20;;;7.10;99.90;;;;;;5033404;28;20238;-60
2021/12/06 11:26:36;;;;;;;1.17;1.17;;;7.10;99.90;;;;;;5031643;28;20200;-60
2021/12/06 11:29:06;;;;;;;1.10;1.10;;;7.10;99.90;;;;;;5029069;28;20331;-61
2021/12/06 11:31:33;;;;;;;1.00;1.00;;;7.10;99.90;;;;;;5029202;28;20228;-60
2021/12/06 11:34:02;;;;;;;1.20;1.20;;;7.20;99.90;;;;;;5030643;28;20314;-60
2021/12/06 11:36:30;;;;;;;1.20;1.20;;;7.20;99.90;;;;;;5027982;28;20209;-62
2021/12/06 11:39:00;;;;;;;1.10;1.10;;;7.10;99.90;;;;;;5025698;28;20216;-60
2021/12/06 11:41:29;;;;;;;1.03;1.03;;;7.10;99.90;;;;;;5027339;28;20232;-61
2021/12/06 11:43:58;;;;;;;1.27;1.27;;;7.10;99.90;;;;;;5022382;28;20645;-59
2021/12/06 11:46:31;;;;;;;1.20;1.20;;;7.00;99.90;;;;;;5028352;28;20210;-59
2021/12/06 11:48:58;;;;;;;1.10;1.10;;;7.10;99.90;;;;;;5027458;28;20204;-61
2021/12/06 11:51:26;;;;;;;1.20;1.20;;;7.10;99.90;;;;;;5026469;28;20981;-61
2021/12/06 11:53:56;;;;;;;1.00;1.00;;;7.20;99.90;;;;;;5023148;28;20224;-62
2021/12/06 11:56:26;;;;;;;1.17;1.17;;;7.20;99.90;;;;;;5024461;28;20660;-61
2021/12/06 11:58:56;;;;;;;0.87;0.87;;;7.20;99.90;;;;;;5020352;28;20939;-61
2021/12/06 12:01:26;;;;;;;1.23;1.23;;;7.30;99.90;;;;;;5026030;28;20201;-61
2021/12/06 12:03:56;;;;;;;1.10;1.10;;;7.30;99.90;;;;;;5023681;28;20231;-60
2021/12/06 12:06:27;;;;;;;1.00;1.00;;;7.30;99.90;;;;;;5017133;28;20212;-60
2021/12/06 12:09:10;;;;;;;1.20;1.20;;;7.30;99.90;;;;;;5023118;28;20269;-61
2021/12/06 12:11:55;;;;;;;1.10;1.10;;;7.10;99.90;;;;;;5025126;28;20200;-61
2021/12/06 12:14:27;;;;;;;1.13;1.13;;;7.10;99.90;;;;;;5022088;28;20776;-60
2021/12/06 12:16:55;;;;;;;1.20;1.20;;;7.10;99.90;;;;;;5024708;28;21808;-60
2021/12/06 12:19:22;;;;;;;1.07;1.07;;;7.00;99.90;;;;;;5023594;28;20215;-62
2021/12/06 12:21:49;;;;;;;1.10;1.10;;;7.00;99.90;;;;;;5027919;28;20332;-61
2021/12/06 12:24:16;;;;;;;1.23;1.23;;;6.90;99.90;;;;;;5021182;28;20234;-62
2021/12/06 12:26:53;;;;;;;1.33;1.30;;;6.80;99.90;;;;;;5024882;28;20200;-62
2021/12/06 12:29:25;;;;;;;1.10;1.10;;;6.70;99.90;;;;;;5024472;28;20208;-63
2021/12/06 12:31:57;;;;;;;1.00;1.00;;;6.60;99.90;;;;;;5031106;28;20204;-60
2021/12/06 12:34:26;;;;;;;0.90;0.90;;;6.70;99.90;;;;;;5034691;28;20405;-60
2021/12/06 12:36:53;;;;;;;1.00;1.00;;;6.70;99.90;;;;;;5042106;28;20212;-59
2021/12/06 12:39:21;;;;;;;1.10;1.10;;;6.80;99.90;;;;;;5043325;28;20346;-60
2021/12/06 12:41:54;;;;;;;1.00;1.00;;;6.70;99.90;;;;;;5043666;28;20287;-60
2021/12/06 12:46:46;;;;;;;0.97;0.97;;;6.60;99.90;;;;;;5056193;22;20318;-67
2021/12/06 12:49:18;;;;;;;1.13;1.13;;;6.60;99.90;;;;;;5051903;28;20307;-66
2021/12/06 12:51:48;;;;;;;1.10;1.10;;;6.60;99.90;;;;;;5051184;28;20673;-66
2021/12/06 12:54:18;;;;;;;1.10;1.10;;;6.60;99.90;;;;;;5047933;28;20455;-67
2021/12/06 12:56:52;;;;;;;1.00;1.00;;;6.60;99.90;;;;;;5024550;28;20252;-67
2021/12/06 12:59:29;;;;;;;1.17;1.17;;;6.60;99.90;;;;;;5017547;28;20224;-66
2021/12/06 13:02:24;;;;;;;1.00;1.00;;;6.70;99.90;;;;;;5033965;28;20317;-66
2021/12/06 13:05:18;;;;;;;1.33;1.10;;;6.70;99.90;;;;;;5030313;28;20225;-66
2021/12/06 13:08:06;;;;;;;1.13;1.13;;;6.70;99.90;;;;;;5033347;28;20205;-67
2021/12/06 13:10:49;;;;;;;1.00;1.00;;;6.60;99.90;;;;;;5032087;28;20282;-67
2021/12/06 13:13:29;;;;;;;1.10;1.10;;;6.60;99.90;;;;;;5028766;28;20589;-68
2021/12/06 13:16:00;;;;;;;1.20;1.20;;;6.70;99.90;;;;;;5031362;28;20219;-68
2021/12/06 13:19:10;;;;;;;1.20;1.20;;;6.70;99.90;;;;;;5040967;28;20208;-66